TimeAST,TemperatureF,Dew PointF,Humidity,Sea Level PressureIn,VisibilityMPH,Wind Direction,Wind SpeedMPH,Gust SpeedMPH,PrecipitationIn,Events,Conditions,WindDirDegrees,DateUTC
12:00 AM,82.4,77.0,84,29.92,6.2,East,13.8,-,N/A,,Partly Cloudy,100,2013-08-29 04:00:00
1:00 AM,82.4,77.0,84,29.92,6.2,East,12.7,-,N/A,,Partly Cloudy,100,2013-08-29 05:00:00
2:00 AM,82,76,76,29.91,19,ESE,8.1,,,,Scattered Clouds,120,2013-08-29 06:00:00
2:00 AM,82.4,75.2,79,29.89,6.2,ESE,11.5,-,N/A,,Partly Cloudy,110,2013-08-29 06:00:00
3:00 AM,82.4,75.2,79,29.86,6.2,ESE,10.4,-,N/A,,Partly Cloudy,120,2013-08-29 07:00:00
4:00 AM,82.4,75.2,79,29.86,6.2,ESE,9.2,-,N/A,,Partly Cloudy,120,2013-08-29 08:00:00
5:00 AM,81,75,77,29.88,19,SE,6.9,,,,Scattered Clouds,130,2013-08-29 09:00:00
5:00 AM,80.6,75.2,84,29.86,6.2,ESE,9.2,-,N/A,,Partly Cloudy,120,2013-08-29 09:00:00
6:00 AM,82.4,75.2,79,29.89,6.2,ESE,10.4,-,N/A,,Partly Cloudy,120,2013-08-29 10:00:00
7:00 AM,82.4,77.0,84,29.89,6.2,ESE,9.2,-,N/A,,Partly Cloudy,120,2013-08-29 11:00:00
8:00 AM,85,76,69,29.92,16,ESE,13.8,,,,Scattered Clouds,120,2013-08-29 12:00:00
8:00 AM,86.0,77.0,74,29.92,6.2,ESE,13.8,-,N/A,,Partly Cloudy,120,2013-08-29 12:00:00
9:00 AM,87.8,75.2,66,29.92,6.2,SE,16.1,-,N/A,,Scattered Clouds,130,2013-08-29 13:00:00
10:00 AM,91.4,73.4,55,29.92,6.2,SE,16.1,-,N/A,,Scattered Clouds,140,2013-08-29 14:00:00
11:00 AM,93,68,35,29.92,25,SSE,13.8,,,,Scattered Clouds,160,2013-08-29 15:00:00
11:00 AM,93.2,69.8,46,29.92,6.2,SE,19.6,-,N/A,,Partly Cloudy,140,2013-08-29 15:00:00
12:00 PM,93.2,68.0,44,29.89,6.2,SSE,16.1,-,N/A,,Partly Cloudy,150,2013-08-29 16:00:00
1:00 PM,89.6,75.2,62,29.89,6.2,East,15.0,-,N/A,,Partly Cloudy,100,2013-08-29 17:00:00
2:00 PM,89,74,52,29.85,28,ESE,17.3,,,,Scattered Clouds,110,2013-08-29 18:00:00
2:00 PM,89.6,73.4,59,29.86,6.2,East,18.4,-,N/A,,Partly Cloudy,90,2013-08-29 18:00:00
3:00 PM,93.2,73.4,52,29.83,6.2,ESE,17.3,29.9,N/A,,Partly Cloudy,120,2013-08-29 19:00:00
4:00 PM,87.8,75.2,66,29.80,6.2,East,18.4,-,N/A,,Partly Cloudy,100,2013-08-29 20:00:00
5:00 PM,87,74,59,29.81,28,ESE,16.1,,,,Scattered Clouds,110,2013-08-29 21:00:00
5:00 PM,87.8,75.2,66,29.80,6.2,East,17.3,-,N/A,,Partly Cloudy,100,2013-08-29 21:00:00
6:00 PM,86.0,73.4,66,29.80,-9999.0,ESE,18.4,-,N/A,,Partly Cloudy,110,2013-08-29 22:00:00
7:00 PM,84.2,73.4,70,29.83,6.2,ESE,16.1,-,N/A,,Partly Cloudy,110,2013-08-29 23:00:00
8:00 PM,84,74,64,29.87,28,ESE,11.5,,,,Scattered Clouds,120,2013-08-30 00:00:00
8:00 PM,84.2,73.4,70,29.86,-9999.0,ESE,12.7,-,N/A,,Clear,110,2013-08-30 00:00:00
9:00 PM,84.2,73.4,70,29.89,-9999.0,ESE,11.5,-,N/A,,Clear,110,2013-08-30 01:00:00
10:00 PM,84.2,73.4,70,29.89,-9999.0,ESE,13.8,-,N/A,,Clear,120,2013-08-30 02:00:00
11:00 PM,85,73,59,29.90,28,SE,13.8,,,,Scattered Clouds,140,2013-08-30 03:00:00
11:00 PM,84.2,73.4,70,29.89,6.2,SE,17.3,-,N/A,,Partly Cloudy,140,2013-08-30 03:00:00